createdAt,value
2018-07-14T00:01:16.364Z,4.20
2018-07-14T00:03:45.693Z,4.37
2018-07-14T00:06:15.017Z,4.00
2018-07-14T00:08:44.360Z,4.27
2018-07-14T00:11:13.671Z,4.70
2018-07-14T00:13:43.052Z,4.10
2018-07-14T00:16:12.371Z,4.37
2018-07-14T00:18:41.471Z,4.33
2018-07-14T00:21:10.553Z,3.73
2018-07-14T00:23:39.879Z,4.17
2018-07-14T00:26:09.200Z,4.13
2018-07-14T00:28:38.532Z,4.80
2018-07-14T00:31:07.878Z,4.55
2018-07-14T00:33:36.956Z,4.30
2018-07-14T00:36:06.359Z,4.33
2018-07-14T00:38:35.444Z,4.20
2018-07-14T00:41:04.769Z,3.83
2018-07-14T00:43:33.860Z,3.90
2018-07-14T00:46:02.947Z,4.03
2018-07-14T00:48:32.003Z,4.63
2018-07-14T00:51:01.341Z,3.80
2018-07-14T00:53:30.444Z,3.77
2018-07-14T00:55:59.835Z,4.23
2018-07-14T00:58:28.911Z,4.13
2018-07-14T01:00:58.223Z,4.00
2018-07-14T01:03:27.540Z,4.07
2018-07-14T01:05:56.889Z,4.20
2018-07-14T01:08:26.204Z,4.07
2018-07-14T01:10:55.540Z,4.57
2018-07-14T01:13:24.602Z,4.20
2018-07-14T01:15:53.932Z,4.30
2018-07-14T01:18:23.249Z,4.20
2018-07-14T01:20:52.583Z,3.73
2018-07-14T01:23:21.906Z,4.20
2018-07-14T01:25:51.233Z,4.87
2018-07-14T01:28:20.320Z,4.77
2018-07-14T01:30:49.657Z,4.20
2018-07-14T01:33:18.980Z,4.60
2018-07-14T01:35:48.303Z,4.27
2018-07-14T01:38:17.633Z,4.50
2018-07-14T01:40:46.711Z,5.17
2018-07-14T01:43:16.039Z,4.80
2018-07-14T01:45:45.390Z,5.43
2018-07-14T01:48:14.692Z,5.47
2018-07-14T01:50:44.042Z,5.60
2018-07-14T01:53:13.369Z,5.40
2018-07-14T01:55:42.748Z,5.40
2018-07-14T01:58:11.820Z,5.40
2018-07-14T02:00:40.908Z,5.07
2018-07-14T02:03:10.253Z,5.20
2018-07-14T02:05:39.599Z,4.60
2018-07-14T02:08:08.936Z,4.72
2018-07-14T02:10:38.272Z,4.67
2018-07-14T02:13:07.612Z,4.70
2018-07-14T02:15:36.950Z,4.90
2018-07-14T02:18:06.287Z,4.90
2018-07-14T02:20:35.617Z,5.33
2018-07-14T02:23:04.928Z,4.70
2018-07-14T02:25:34.004Z,4.80
2018-07-14T02:28:03.317Z,4.63
2018-07-14T02:30:32.400Z,4.53
2018-07-14T02:33:01.717Z,4.33
2018-07-14T02:35:30.787Z,4.60
2018-07-14T02:38:00.112Z,5.00
2018-07-14T02:40:29.188Z,4.30
2018-07-14T02:42:58.520Z,5.17
2018-07-14T02:45:27.851Z,4.53
2018-07-14T02:47:57.180Z,4.73
2018-07-14T02:50:26.517Z,4.73
2018-07-14T02:52:55.865Z,4.60
2018-07-14T02:55:25.189Z,4.70
2018-07-14T02:57:54.541Z,4.83
2018-07-14T03:00:23.882Z,4.20
2018-07-14T03:02:53.216Z,4.10
2018-07-14T03:05:22.527Z,3.83
2018-07-14T03:07:51.863Z,4.30
2018-07-14T03:10:21.197Z,4.70
2018-07-14T03:12:50.613Z,4.77
2018-07-14T03:15:19.867Z,5.03
2018-07-14T03:17:49.205Z,5.23
2018-07-14T03:20:18.537Z,6.63
2018-07-14T03:22:47.887Z,5.50
2018-07-14T03:25:17.240Z,6.40
2018-07-14T03:27:46.596Z,5.80
2018-07-14T03:30:15.924Z,5.30
2018-07-14T03:32:45.268Z,7.00
2018-07-14T03:35:14.592Z,6.73
2018-07-14T03:37:44.027Z,5.63
2018-07-14T03:40:13.348Z,5.45
2018-07-14T03:42:42.703Z,4.70
2018-07-14T03:45:12.140Z,4.83
2018-07-14T03:47:41.480Z,4.63
2018-07-14T03:50:10.816Z,4.80
2018-07-14T03:52:40.160Z,5.40
2018-07-14T03:55:09.479Z,4.90
2018-07-14T03:57:38.826Z,4.67
2018-07-14T04:00:08.625Z,6.00
2018-07-14T04:02:38.004Z,6.33
2018-07-14T04:05:07.420Z,7.00
2018-07-14T04:07:36.761Z,6.10
2018-07-14T04:10:06.116Z,6.33
2018-07-14T04:12:35.488Z,5.93
2018-07-14T04:15:04.836Z,6.17
2018-07-14T04:17:33.912Z,6.30
2018-07-14T04:20:03.547Z,5.23
2018-07-14T04:22:32.642Z,5.33
2018-07-14T04:25:02.251Z,5.33
2018-07-14T04:27:31.331Z,5.23
2018-07-14T04:30:00.671Z,5.05
2018-07-14T04:32:30.009Z,6.27
2018-07-14T04:34:59.347Z,6.23
2018-07-14T04:37:28.423Z,6.40
2018-07-14T04:39:57.768Z,6.43
2018-07-14T04:42:27.185Z,6.13
2018-07-14T04:44:56.455Z,5.90
2018-07-14T04:47:25.805Z,5.30
2018-07-14T04:49:55.149Z,5.80
2018-07-14T04:52:24.224Z,6.67
2018-07-14T04:54:53.557Z,5.87
2018-07-14T04:57:22.946Z,6.37
2018-07-14T04:59:52.366Z,7.13
2018-07-14T05:02:21.697Z,7.05
2018-07-14T05:04:51.044Z,6.90
2018-07-14T05:07:20.126Z,6.53
2018-07-14T05:09:49.463Z,6.53
2018-07-14T05:12:18.780Z,7.00
2018-07-14T05:14:48.112Z,7.70
2018-07-14T05:17:17.453Z,7.77
2018-07-14T05:19:46.798Z,7.03
2018-07-14T05:22:16.128Z,8.00
2018-07-14T05:24:45.484Z,8.53
2018-07-14T05:27:14.823Z,8.07
2018-07-14T05:29:44.171Z,8.87
2018-07-14T05:32:13.508Z,7.65
2018-07-14T05:34:42.872Z,7.97
2018-07-14T05:37:18.768Z,8.37
2018-07-14T05:39:48.100Z,7.67
2018-07-14T05:42:17.186Z,7.07
2018-07-14T05:44:46.299Z,7.60
2018-07-14T05:47:15.631Z,7.53
2018-07-14T05:49:45.015Z,7.07
2018-07-14T05:52:14.350Z,7.33
2018-07-14T05:54:43.692Z,8.23
2018-07-14T05:57:12.780Z,7.40
2018-07-14T05:59:41.886Z,7.80
2018-07-14T06:02:10.959Z,6.90
2018-07-14T06:04:40.286Z,7.43
2018-07-14T06:07:09.656Z,7.07
2018-07-14T06:09:38.974Z,6.62
2018-07-14T06:12:08.909Z,6.80
2018-07-14T06:14:38.240Z,6.63
2018-07-14T06:17:07.575Z,6.73
2018-07-14T06:19:36.937Z,6.10
2018-07-14T06:22:06.275Z,6.47
2018-07-14T06:24:35.608Z,5.70
2018-07-14T06:27:04.979Z,6.77
2018-07-14T06:29:34.312Z,6.57
2018-07-14T06:32:03.679Z,7.80
2018-07-14T06:34:32.996Z,7.70
2018-07-14T06:37:02.104Z,7.50
2018-07-14T06:39:31.448Z,7.23
2018-07-14T06:42:00.774Z,7.00
2018-07-14T06:44:30.112Z,8.10
2018-07-14T06:46:59.456Z,7.43
2018-07-14T06:49:28.779Z,7.30
2018-07-14T06:51:58.187Z,6.60
2018-07-14T06:54:27.526Z,6.40
2018-07-14T06:56:56.888Z,6.83
2018-07-14T06:59:26.207Z,6.00
2018-07-14T07:01:55.565Z,6.25
2018-07-14T07:04:24.893Z,5.90
2018-07-14T07:06:54.227Z,6.83
2018-07-14T07:09:23.559Z,6.10
2018-07-14T07:11:52.920Z,5.97
2018-07-14T07:14:22.331Z,5.50
2018-07-14T07:16:51.683Z,6.00
2018-07-14T07:19:21.031Z,5.90
2018-07-14T07:21:50.366Z,5.90
2018-07-14T07:24:19.792Z,5.63
2018-07-14T07:26:49.144Z,5.53
2018-07-14T07:29:18.497Z,5.37
2018-07-14T07:31:47.852Z,5.57
2018-07-14T07:34:17.324Z,5.33
2018-07-14T07:36:46.668Z,4.83
2018-07-14T07:39:16.002Z,5.33
2018-07-14T07:41:45.384Z,5.83
2018-07-14T07:44:14.716Z,5.30
2018-07-14T07:46:44.060Z,5.70
2018-07-14T07:49:13.395Z,4.97
2018-07-14T07:51:42.770Z,5.10
2018-07-14T07:54:12.107Z,4.93
2018-07-14T07:56:41.459Z,5.33
2018-07-14T07:59:10.780Z,5.90
2018-07-14T08:01:40.128Z,5.40
2018-07-14T08:04:09.474Z,5.40
2018-07-14T08:06:38.824Z,5.60
2018-07-14T08:09:08.652Z,5.13
2018-07-14T08:11:37.751Z,5.20
2018-07-14T08:14:07.096Z,5.40
2018-07-14T08:16:36.484Z,4.80
2018-07-14T08:19:05.526Z,4.50
2018-07-14T08:21:34.991Z,4.93
2018-07-14T08:24:04.324Z,5.10
2018-07-14T08:26:33.668Z,4.67
2018-07-14T08:29:03.017Z,4.60
2018-07-14T08:31:32.377Z,4.43
2018-07-14T08:34:01.729Z,4.30
2018-07-14T08:36:31.066Z,4.57
2018-07-14T08:39:00.429Z,4.13
2018-07-14T08:41:29.777Z,4.37
2018-07-14T08:43:59.129Z,4.27
2018-07-14T08:46:28.481Z,4.33
2018-07-14T08:48:57.836Z,4.70
2018-07-14T08:51:27.207Z,4.47
2018-07-14T08:53:56.531Z,4.30
2018-07-14T08:56:25.891Z,4.67
2018-07-14T08:58:55.244Z,4.17
2018-07-14T09:01:24.584Z,4.53
2018-07-14T09:03:53.950Z,4.33
2018-07-14T09:06:23.035Z,4.00
2018-07-14T09:08:52.394Z,4.73
2018-07-14T09:11:21.736Z,4.33
2018-07-14T09:13:51.098Z,3.77
2018-07-14T09:16:20.568Z,4.30
2018-07-14T09:18:49.852Z,3.67
2018-07-14T09:21:19.227Z,4.30
2018-07-14T09:23:48.592Z,4.08
2018-07-14T09:26:17.921Z,4.47
2018-07-14T09:28:47.263Z,4.10
2018-07-14T09:31:16.344Z,3.87
2018-07-14T09:33:45.697Z,4.00
2018-07-14T09:36:15.051Z,3.23
2018-07-14T09:38:44.423Z,3.80
2018-07-14T09:41:13.756Z,3.80
2018-07-14T09:43:42.870Z,4.03
2018-07-14T09:46:12.208Z,3.83
2018-07-14T09:48:41.556Z,3.73
2018-07-14T09:51:11.464Z,3.60
2018-07-14T09:53:40.560Z,3.53
2018-07-14T09:56:09.901Z,3.70
2018-07-14T09:58:39.269Z,3.63
2018-07-14T10:01:09.731Z,3.50
2018-07-14T10:03:39.736Z,3.70
2018-07-14T10:06:09.092Z,3.20
2018-07-14T10:08:38.457Z,3.83
2018-07-14T10:11:07.809Z,3.37
2018-07-14T10:13:37.139Z,3.87
2018-07-14T10:16:06.528Z,3.67
2018-07-14T10:18:35.877Z,3.20
2018-07-14T10:21:05.207Z,3.87
2018-07-14T10:23:34.576Z,3.30
2018-07-14T10:26:03.927Z,3.73
2018-07-14T10:28:33.269Z,3.43
2018-07-14T10:31:02.636Z,3.50
2018-07-14T10:33:31.973Z,3.30
2018-07-14T10:36:01.320Z,3.87
2018-07-14T10:38:30.408Z,3.80
2018-07-14T10:40:59.772Z,3.47
2018-07-14T10:43:29.111Z,3.80
2018-07-14T10:45:58.485Z,3.93
2018-07-14T10:48:27.833Z,3.53
2018-07-14T10:50:57.184Z,3.90
2018-07-14T10:53:26.529Z,3.77
2018-07-14T10:55:55.633Z,3.10
2018-07-14T10:58:24.965Z,3.22
2018-07-14T11:00:54.313Z,3.30
2018-07-14T11:03:23.635Z,3.30
2018-07-14T11:05:52.728Z,3.63
2018-07-14T11:08:22.071Z,3.60
2018-07-14T11:10:51.412Z,3.60
2018-07-14T11:13:20.755Z,4.37
2018-07-14T11:15:50.089Z,4.27
2018-07-14T11:18:19.421Z,3.90
2018-07-14T11:20:48.503Z,3.80
2018-07-14T11:23:17.839Z,3.57
2018-07-14T11:25:47.196Z,3.63
2018-07-14T11:28:16.545Z,3.52
2018-07-14T11:30:45.940Z,3.27
2018-07-14T11:33:15.298Z,3.57
2018-07-14T11:35:44.639Z,3.00
2018-07-14T11:38:13.980Z,2.55
2018-07-14T11:40:43.327Z,2.70
2018-07-14T11:43:12.680Z,2.60
2018-07-14T11:45:42.021Z,2.73
2018-07-14T11:48:11.108Z,3.00
2018-07-14T11:50:40.473Z,3.33
2018-07-14T11:53:09.821Z,2.70
2018-07-14T11:55:39.183Z,3.43
2018-07-14T11:58:09.503Z,3.05
2018-07-14T12:00:38.847Z,3.10
2018-07-14T12:03:07.935Z,4.03
2018-07-14T12:05:37.260Z,3.77
2018-07-14T12:08:06.592Z,3.80
2018-07-14T12:10:35.919Z,3.23
2018-07-14T12:13:05.264Z,3.33
2018-07-14T12:15:34.608Z,3.50
2018-07-14T12:18:03.948Z,3.63
2018-07-14T12:20:33.019Z,3.50
2018-07-14T12:23:02.370Z,3.63
2018-07-14T12:25:31.704Z,4.13
2018-07-14T12:28:01.047Z,3.80
2018-07-14T12:30:30.128Z,3.93
2018-07-14T12:32:59.459Z,3.63
2018-07-14T12:35:28.807Z,3.70
2018-07-14T12:37:58.140Z,3.60
2018-07-14T12:40:27.234Z,3.33
2018-07-14T12:42:56.323Z,3.40
2018-07-14T12:45:25.398Z,3.50
2018-07-14T12:47:54.731Z,3.60
2018-07-14T12:50:24.108Z,3.70
2018-07-14T12:52:53.456Z,3.63
2018-07-14T12:55:22.816Z,4.93
2018-07-14T12:57:52.160Z,5.30
2018-07-14T13:00:21.513Z,4.40
2018-07-14T13:02:50.836Z,4.33
2018-07-14T13:05:20.188Z,4.20
2018-07-14T13:07:49.528Z,4.13
2018-07-14T13:10:18.860Z,3.90
2018-07-14T13:12:48.176Z,3.67
2018-07-14T13:15:17.504Z,3.40
2018-07-14T13:17:46.836Z,3.30
2018-07-14T13:20:15.914Z,3.50
2018-07-14T13:22:45.297Z,3.77
2018-07-14T13:25:14.612Z,3.75
2018-07-14T13:27:44.249Z,3.30
2018-07-14T13:30:13.327Z,4.06
2018-07-14T13:32:42.660Z,3.27
2018-07-14T13:35:11.996Z,3.33
2018-07-14T13:37:41.316Z,3.12
2018-07-14T13:40:10.656Z,3.60
2018-07-14T13:42:39.980Z,3.73
2018-07-14T13:45:09.339Z,3.90
2018-07-14T13:47:38.422Z,3.95
2018-07-14T13:50:08.855Z,4.28
2018-07-14T13:52:37.964Z,4.20
2018-07-14T13:55:07.585Z,4.22
2018-07-14T13:57:36.980Z,4.15
2018-07-14T14:00:06.885Z,4.30
2018-07-14T14:02:36.887Z,4.90
2018-07-14T14:05:06.063Z,4.12
2018-07-14T14:07:35.691Z,4.28
2018-07-14T14:10:04.794Z,4.12
2018-07-14T14:12:34.128Z,4.28
2018-07-14T14:15:03.476Z,4.25
2018-07-14T14:17:32.800Z,3.80
2018-07-14T14:20:02.158Z,4.12
2018-07-14T14:22:31.460Z,4.30
2018-07-14T14:25:00.801Z,4.20
2018-07-14T14:27:30.128Z,4.67
2018-07-14T14:29:59.483Z,3.93
2018-07-14T14:32:28.819Z,4.12
2018-07-14T14:34:58.153Z,4.10
2018-07-14T14:37:27.521Z,4.08
2018-07-14T14:39:56.913Z,3.80
2018-07-14T14:42:26.273Z,4.30
2018-07-14T14:44:55.647Z,4.37
2018-07-14T14:47:25.015Z,3.85
2018-07-14T14:49:54.360Z,4.60
2018-07-14T14:52:23.685Z,3.97
2018-07-14T14:54:53.035Z,3.98
2018-07-14T14:57:22.385Z,3.80
2018-07-14T14:59:51.724Z,3.87
2018-07-14T15:02:21.048Z,3.67
2018-07-14T15:04:50.439Z,4.00
2018-07-14T15:07:19.487Z,3.90
2018-07-14T15:09:48.853Z,3.90
2018-07-14T15:12:18.177Z,4.15
2018-07-14T15:14:47.511Z,4.70
2018-07-14T15:17:16.583Z,4.30
2018-07-14T15:19:45.932Z,4.10
2018-07-14T15:22:15.304Z,4.80
2018-07-14T15:24:44.408Z,4.75
2018-07-14T15:27:13.742Z,3.90
2018-07-14T15:29:43.097Z,4.40
2018-07-14T15:32:12.235Z,4.37
2018-07-14T15:34:41.541Z,4.28
2018-07-14T15:37:10.903Z,3.98
2018-07-14T15:39:40.267Z,4.47
2018-07-14T15:42:09.747Z,4.05
2018-07-14T15:44:39.080Z,4.00
2018-07-14T15:47:08.416Z,4.10
2018-07-14T15:49:37.740Z,4.22
2018-07-14T15:52:07.448Z,3.77
2018-07-14T15:54:36.893Z,3.60
2018-07-14T15:57:06.228Z,3.62
2018-07-14T15:59:35.548Z,3.25
2018-07-14T16:02:05.072Z,3.50
2018-07-14T16:04:34.383Z,3.30
2018-07-14T16:07:03.724Z,3.90
2018-07-14T16:09:32.794Z,3.70
2018-07-14T16:12:02.128Z,3.55
2018-07-14T16:14:31.463Z,3.52
2018-07-14T16:17:00.793Z,3.67
2018-07-14T16:19:30.160Z,3.65
2018-07-14T16:21:59.480Z,3.55
2018-07-14T16:24:28.812Z,3.47
2018-07-14T16:26:57.904Z,4.03
2018-07-14T16:29:27.232Z,3.42
2018-07-14T16:31:56.580Z,3.33
2018-07-14T16:34:25.939Z,3.77
2018-07-14T16:36:55.313Z,3.83
2018-07-14T16:39:24.410Z,3.90
2018-07-14T16:41:53.491Z,4.22
2018-07-14T16:44:22.820Z,4.47
2018-07-14T16:46:52.168Z,3.47
2018-07-14T16:49:21.483Z,3.72
2018-07-14T16:51:50.833Z,3.60
2018-07-14T16:54:20.151Z,3.70
2018-07-14T16:56:49.479Z,3.40
2018-07-14T16:59:18.809Z,3.65
2018-07-14T17:01:48.135Z,3.75
2018-07-14T17:04:17.479Z,3.67
2018-07-14T17:06:46.808Z,3.77
2018-07-14T17:09:16.196Z,3.27
2018-07-14T17:11:45.555Z,3.42
2018-07-14T17:14:14.959Z,3.47
2018-07-14T17:16:44.268Z,3.85
2018-07-14T17:19:13.620Z,3.92
2018-07-14T17:21:42.723Z,3.30
2018-07-14T17:24:11.807Z,3.45
2018-07-14T17:26:40.899Z,3.55
2018-07-14T17:29:09.984Z,3.95
2018-07-14T17:31:39.317Z,3.45
2018-07-14T17:34:09.456Z,3.87
2018-07-14T17:36:38.792Z,3.95
2018-07-14T17:39:09.139Z,3.70
2018-07-14T17:41:38.682Z,3.70
2018-07-14T17:44:09.080Z,3.52
2018-07-14T17:46:38.156Z,3.45
2018-07-14T17:49:07.484Z,3.98
2018-07-14T17:51:37.047Z,3.37
2018-07-14T17:54:06.190Z,3.72
2018-07-14T17:56:35.516Z,3.87
2018-07-14T17:59:04.872Z,3.60
2018-07-14T18:01:33.964Z,3.37
2018-07-14T18:04:03.039Z,3.65
2018-07-14T18:06:32.407Z,3.77
2018-07-14T18:09:01.753Z,3.55
2018-07-14T18:11:31.093Z,3.20
2018-07-14T18:14:00.432Z,3.20
2018-07-14T18:16:29.850Z,3.72
2018-07-14T18:18:58.871Z,3.40
2018-07-14T18:21:28.219Z,3.22
2018-07-14T18:23:57.601Z,3.55
2018-07-14T18:26:26.927Z,3.47
2018-07-14T18:28:56.281Z,3.35
2018-07-14T18:31:25.620Z,3.58
2018-07-14T18:33:54.948Z,3.30
2018-07-14T18:36:24.316Z,3.07
2018-07-14T18:38:53.660Z,3.40
2018-07-14T18:41:23.055Z,3.25
2018-07-14T18:43:52.441Z,3.37
2018-07-14T18:46:21.768Z,3.03
2018-07-14T18:48:50.864Z,3.33
2018-07-14T18:51:19.951Z,3.55
2018-07-14T18:53:49.290Z,3.20
2018-07-14T18:56:18.640Z,3.40
2018-07-14T18:58:47.999Z,3.50
2018-07-14T19:01:17.332Z,3.60
2018-07-14T19:03:46.677Z,3.02
2018-07-14T19:06:16.025Z,3.10
2018-07-14T19:08:45.419Z,3.92
2018-07-14T19:11:14.738Z,3.33
2018-07-14T19:13:44.087Z,3.50
2018-07-14T19:16:13.424Z,3.38
2018-07-14T19:18:42.771Z,3.92
2018-07-14T19:21:11.960Z,3.40
2018-07-14T19:23:40.966Z,3.60
2018-07-14T19:26:10.275Z,3.87
2018-07-14T19:28:39.477Z,4.08
2018-07-14T19:31:08.953Z,4.03
2018-07-14T19:33:38.176Z,3.90
2018-07-14T19:36:08.753Z,3.55
2018-07-14T19:38:38.123Z,4.20
2018-07-14T19:41:07.508Z,3.95
2018-07-14T19:43:36.931Z,3.92
2018-07-14T19:46:06.284Z,4.00
2018-07-14T19:48:35.640Z,4.10
2018-07-14T19:51:05.030Z,3.70
2018-07-14T19:53:34.346Z,4.10
2018-07-14T19:56:03.766Z,3.90
2018-07-14T19:58:32.790Z,4.27
2018-07-14T20:01:01.899Z,3.97
2018-07-14T20:03:31.243Z,4.07
2018-07-14T20:06:00.592Z,4.00
2018-07-14T20:08:29.678Z,3.80
2018-07-14T20:10:59.041Z,4.37
2018-07-14T20:13:28.460Z,3.60
2018-07-14T20:15:57.803Z,4.50
2018-07-14T20:18:27.144Z,3.90
2018-07-14T20:20:56.474Z,4.50
2018-07-14T20:23:25.801Z,3.73
2018-07-14T20:25:54.874Z,4.20
2018-07-14T20:28:24.236Z,5.00
2018-07-14T20:30:53.591Z,4.07
2018-07-14T20:33:22.698Z,4.10
2018-07-14T20:35:51.787Z,3.80
2018-07-14T20:38:21.129Z,3.75
2018-07-14T20:40:50.488Z,4.20
2018-07-14T20:43:19.703Z,4.27
2018-07-14T20:45:49.035Z,4.07
2018-07-14T20:48:18.375Z,4.10
2018-07-14T20:50:47.487Z,4.10
2018-07-14T20:53:16.563Z,4.00
2018-07-14T20:55:45.916Z,4.47
2018-07-14T20:58:15.252Z,4.20
2018-07-14T21:00:44.595Z,4.37
2018-07-14T21:03:13.923Z,4.00
2018-07-14T21:05:43.521Z,3.87
2018-07-14T21:08:12.843Z,4.30
2018-07-14T21:10:42.176Z,4.47
2018-07-14T21:13:11.503Z,4.27
2018-07-14T21:15:40.914Z,4.40
2018-07-14T21:18:10.244Z,4.23
2018-07-14T21:20:39.656Z,4.67
2018-07-14T21:23:08.935Z,3.97
2018-07-14T21:25:38.296Z,4.30
2018-07-14T21:28:08.607Z,4.20
2018-07-14T21:30:37.703Z,4.67
2018-07-14T21:33:07.112Z,4.27
2018-07-14T21:35:36.628Z,5.07
2018-07-14T21:38:05.983Z,4.47
2018-07-14T21:40:35.328Z,4.70
2018-07-14T21:43:04.666Z,5.10
2018-07-14T21:45:34.016Z,4.80
2018-07-14T21:48:03.109Z,4.63
2018-07-14T21:50:32.470Z,4.43
2018-07-14T21:53:01.792Z,4.80
2018-07-14T21:55:31.124Z,3.97
2018-07-14T21:58:00.231Z,4.60
2018-07-14T22:00:35.144Z,4.47
2018-07-14T22:03:06.115Z,4.03
2018-07-14T22:05:35.440Z,4.30
2018-07-14T22:08:04.791Z,3.97
2018-07-14T22:10:34.131Z,4.37
2018-07-14T22:13:03.471Z,4.50
2018-07-14T22:15:32.810Z,4.40
2018-07-14T22:18:02.139Z,3.87
2018-07-14T22:20:31.488Z,4.27
2018-07-14T22:23:00.827Z,4.40
2018-07-14T22:25:30.161Z,4.07
2018-07-14T22:27:59.494Z,4.43
2018-07-14T22:30:28.607Z,3.83
2018-07-14T22:32:57.969Z,4.67
2018-07-14T22:35:27.283Z,4.10
2018-07-14T22:37:56.366Z,4.07
2018-07-14T22:40:25.447Z,3.98
2018-07-14T22:42:54.811Z,4.50
2018-07-14T22:45:24.135Z,4.73
2018-07-14T22:47:53.463Z,4.47
2018-07-14T22:50:22.807Z,4.77
2018-07-14T22:52:52.227Z,4.15
2018-07-14T22:55:21.548Z,4.97
2018-07-14T22:57:57.650Z,4.37
2018-07-14T23:00:26.979Z,4.53
2018-07-14T23:02:56.317Z,4.47
2018-07-14T23:05:25.856Z,4.40
2018-07-14T23:07:55.201Z,5.03
2018-07-14T23:10:24.532Z,4.50
2018-07-14T23:12:53.862Z,4.57
2018-07-14T23:15:23.199Z,5.10
2018-07-14T23:17:52.532Z,5.17
2018-07-14T23:20:21.874Z,4.60
2018-07-14T23:22:51.321Z,4.53
2018-07-14T23:25:20.651Z,5.17
2018-07-14T23:27:49.767Z,4.73
2018-07-14T23:30:19.103Z,4.55
2018-07-14T23:32:48.419Z,4.03
2018-07-14T23:35:17.760Z,4.47
2018-07-14T23:37:46.873Z,4.63
2018-07-14T23:40:16.203Z,5.10
2018-07-14T23:42:45.543Z,4.87
2018-07-14T23:45:14.872Z,5.07
2018-07-14T23:47:44.225Z,4.60
2018-07-14T23:50:13.560Z,5.00
2018-07-14T23:52:42.638Z,4.90
2018-07-14T23:55:11.967Z,5.27
2018-07-14T23:57:41.291Z,5.07
